createdAt,value
2019-02-25T00:02:34.852Z,7.60
2019-02-25T00:05:04.571Z,7.60
2019-02-25T00:07:33.210Z,7.50
2019-02-25T00:10:02.004Z,7.60
2019-02-25T00:12:30.571Z,7.50
2019-02-25T00:14:59.164Z,7.50
2019-02-25T00:17:27.756Z,7.50
2019-02-25T00:20:15.831Z,7.50
2019-02-25T00:22:44.437Z,7.50
2019-02-25T00:25:13.031Z,7.50
2019-02-25T00:27:42.320Z,7.50
2019-02-25T00:30:10.924Z,7.50
2019-02-25T00:32:39.582Z,7.40
2019-02-25T00:35:08.182Z,7.30
2019-02-25T00:37:36.816Z,7.20
2019-02-25T00:40:05.506Z,7.20
2019-02-25T00:42:34.085Z,7.20
2019-02-25T00:45:03.959Z,7.20
2019-02-25T00:47:32.565Z,7.20
2019-02-25T00:50:20.493Z,7.10
2019-02-25T00:53:08.421Z,7.10
2019-02-25T00:55:37.031Z,7.10
2019-02-25T00:58:05.708Z,7.00
2019-02-25T01:00:34.293Z,6.90
2019-02-25T01:03:05.058Z,6.90
2019-02-25T01:05:33.638Z,6.90
2019-02-25T01:08:04.595Z,6.80
2019-02-25T01:10:33.216Z,6.80
2019-02-25T01:13:01.803Z,6.80
2019-02-25T01:15:30.395Z,6.80
2019-02-25T01:17:59.998Z,6.80
2019-02-25T01:20:28.792Z,6.70
2019-02-25T01:22:57.373Z,6.70
2019-02-25T01:25:25.938Z,6.70
2019-02-25T01:27:54.523Z,6.80
2019-02-25T01:30:23.108Z,6.70
2019-02-25T01:32:51.718Z,6.80
2019-02-25T01:35:39.636Z,6.80
2019-02-25T01:38:08.237Z,6.70
2019-02-25T01:40:36.837Z,6.80
2019-02-25T01:43:05.472Z,6.70
2019-02-25T01:45:34.093Z,6.70
2019-02-25T01:48:02.765Z,6.60
2019-02-25T01:50:31.343Z,6.60
2019-02-25T01:52:59.918Z,6.60
2019-02-25T01:55:28.523Z,6.50
2019-02-25T01:57:57.129Z,6.50
2019-02-25T02:00:45.058Z,6.50
2019-02-25T02:03:13.651Z,6.50
2019-02-25T02:05:42.253Z,6.50
2019-02-25T02:08:10.843Z,6.40
2019-02-25T02:10:39.454Z,6.40
2019-02-25T02:13:14.246Z,6.40
2019-02-25T02:15:38.403Z,6.50
2019-02-25T02:18:06.996Z,6.50
2019-02-25T02:20:35.592Z,6.50
2019-02-25T02:23:04.225Z,6.60
2019-02-25T02:25:32.807Z,6.60
2019-02-25T02:28:01.493Z,6.60
2019-02-25T02:30:30.079Z,6.60
2019-02-25T02:32:58.656Z,6.60
2019-02-25T02:35:27.244Z,6.70
2019-02-25T02:37:55.858Z,6.80
2019-02-25T02:40:24.444Z,6.90
2019-02-25T02:42:54.382Z,6.80
2019-02-25T02:45:38.522Z,6.80
2019-02-25T02:48:37.094Z,6.70
2019-02-25T02:51:05.682Z,6.70
2019-02-25T02:53:34.290Z,6.60
2019-02-25T02:56:03.020Z,6.60
2019-02-25T02:58:31.620Z,6.60
2019-02-25T03:01:00.205Z,6.60
2019-02-25T03:03:28.783Z,6.60
2019-02-25T03:05:57.380Z,6.50
2019-02-25T03:08:25.970Z,6.50
2019-02-25T03:10:54.536Z,6.60
2019-02-25T03:13:42.467Z,6.60
2019-02-25T03:16:11.069Z,6.50
2019-02-25T03:18:39.726Z,6.50
2019-02-25T03:21:08.307Z,6.50
2019-02-25T03:23:36.889Z,6.50
2019-02-25T03:26:05.521Z,6.50
2019-02-25T03:28:34.421Z,6.50
2019-02-25T03:31:05.325Z,6.50
2019-02-25T03:33:33.905Z,6.40
2019-02-25T03:36:02.619Z,6.40
2019-02-25T03:38:31.229Z,6.40
2019-02-25T03:40:59.840Z,6.40
2019-02-25T03:43:28.440Z,6.50
2019-02-25T03:45:57.020Z,6.40
2019-02-25T03:48:25.661Z,6.50
2019-02-25T03:50:54.291Z,6.50
2019-02-25T03:53:22.858Z,6.60
2019-02-25T03:55:51.478Z,6.70
2019-02-25T03:58:20.091Z,6.80
2019-02-25T04:00:48.685Z,7.00
2019-02-25T04:03:20.276Z,7.10
2019-02-25T04:05:49.048Z,7.00
2019-02-25T04:08:17.720Z,7.10
2019-02-25T04:10:46.301Z,6.90
2019-02-25T04:13:17.772Z,6.90
2019-02-25T04:15:46.459Z,6.90
2019-02-25T04:18:16.627Z,6.80
2019-02-25T04:20:45.224Z,6.80
2019-02-25T04:23:13.821Z,6.60
2019-02-25T04:26:01.805Z,6.50
2019-02-25T04:28:30.410Z,6.40
2019-02-25T04:30:58.999Z,6.40
2019-02-25T04:33:27.625Z,6.40
2019-02-25T04:35:56.204Z,6.30
2019-02-25T04:38:24.786Z,6.30
2019-02-25T04:40:53.355Z,6.10
2019-02-25T04:43:21.929Z,6.00
2019-02-25T04:45:50.524Z,5.90
2019-02-25T04:48:19.099Z,5.80
2019-02-25T04:50:47.701Z,5.80
2019-02-25T04:53:16.465Z,5.80
2019-02-25T04:55:45.048Z,5.70
2019-02-25T04:58:13.637Z,5.70
2019-02-25T05:00:42.200Z,5.70
2019-02-25T05:03:10.801Z,5.60
2019-02-25T05:05:39.375Z,5.60
2019-02-25T05:08:07.976Z,5.60
2019-02-25T05:10:36.544Z,5.60
2019-02-25T05:13:05.700Z,5.60
2019-02-25T05:15:36.903Z,5.70
2019-02-25T05:18:05.535Z,5.80
2019-02-25T05:20:34.132Z,5.80
2019-02-25T05:23:02.861Z,5.80
2019-02-25T05:25:31.775Z,5.80
2019-02-25T05:28:00.421Z,5.90
2019-02-25T05:30:28.988Z,5.90
2019-02-25T05:32:57.843Z,5.90
2019-02-25T05:35:26.557Z,5.90
2019-02-25T05:37:55.148Z,5.90
2019-02-25T05:40:23.744Z,5.90
2019-02-25T05:42:52.616Z,5.90
2019-02-25T05:45:21.203Z,5.90
2019-02-25T05:47:49.834Z,5.90
2019-02-25T05:50:18.483Z,5.90
2019-02-25T05:52:47.041Z,5.90
2019-02-25T05:55:15.919Z,5.90
2019-02-25T05:57:44.562Z,5.90
2019-02-25T06:00:17.293Z,5.90
2019-02-25T06:02:45.868Z,5.90
2019-02-25T06:05:16.937Z,5.90
2019-02-25T06:07:45.530Z,5.90
2019-02-25T06:10:15.193Z,6.00
2019-02-25T06:12:43.793Z,6.00
2019-02-25T06:15:13.887Z,6.00
2019-02-25T06:17:42.537Z,6.00
2019-02-25T06:20:11.838Z,5.90
2019-02-25T06:22:40.494Z,5.90
2019-02-25T06:25:09.125Z,5.90
2019-02-25T06:27:37.730Z,5.90
2019-02-25T06:30:07.471Z,5.80
2019-02-25T06:32:36.072Z,5.70
2019-02-25T06:35:05.440Z,5.70
2019-02-25T06:37:34.016Z,5.70
2019-02-25T06:40:04.389Z,5.60
2019-02-25T06:42:52.292Z,5.60
2019-02-25T06:45:21.007Z,5.50
2019-02-25T06:47:49.994Z,5.50
2019-02-25T06:50:18.578Z,5.60
2019-02-25T06:52:47.252Z,5.60
2019-02-25T06:55:15.937Z,5.60
2019-02-25T06:57:51.697Z,5.60
2019-02-25T07:00:20.321Z,5.70
2019-02-25T07:02:48.932Z,5.70
2019-02-25T07:05:29.522Z,5.70
2019-02-25T07:08:01.887Z,5.80
2019-02-25T07:11:01.754Z,5.80
2019-02-25T07:13:41.116Z,5.90
2019-02-25T07:16:35.457Z,5.90
2019-02-25T07:19:11.386Z,5.90
2019-02-25T07:21:50.230Z,5.90
2019-02-25T07:24:52.691Z,5.90
2019-02-25T07:27:37.729Z,6.00
2019-02-25T07:30:27.083Z,6.00
2019-02-25T07:33:17.963Z,6.10
2019-02-25T07:36:05.652Z,6.10
2019-02-25T07:38:52.084Z,6.20
2019-02-25T07:41:38.444Z,6.30
2019-02-25T07:44:28.391Z,6.40
2019-02-25T07:47:25.320Z,6.50
2019-02-25T07:50:11.729Z,6.60
2019-02-25T07:52:51.167Z,6.90
2019-02-25T07:55:42.119Z,7.10
2019-02-25T07:58:33.032Z,7.40
2019-02-25T08:01:07.083Z,7.60
2019-02-25T08:03:57.497Z,7.80
2019-02-25T08:06:37.934Z,7.90
2019-02-25T08:09:27.389Z,8.00
2019-02-25T08:12:05.588Z,8.20
2019-02-25T08:14:59.284Z,8.50
2019-02-25T08:18:03.937Z,8.70
2019-02-25T08:20:49.124Z,8.90
2019-02-25T08:23:35.786Z,9.10
2019-02-25T08:26:32.845Z,9.20
2019-02-25T08:29:08.217Z,9.30
2019-02-25T08:31:44.377Z,9.50
2019-02-25T08:34:35.288Z,9.70
2019-02-25T08:37:18.483Z,9.90
2019-02-25T08:40:05.914Z,10.20
2019-02-25T08:42:56.713Z,10.60
2019-02-25T08:45:39.950Z,10.70
2019-02-25T08:48:12.303Z,10.80
2019-02-25T08:50:41.004Z,10.80
2019-02-25T08:53:09.596Z,10.70
2019-02-25T08:55:38.205Z,10.70
2019-02-25T08:58:06.864Z,10.70
2019-02-25T09:00:35.575Z,10.60
2019-02-25T09:03:04.228Z,10.60
2019-02-25T09:05:32.824Z,10.70
2019-02-25T09:08:01.500Z,10.70
2019-02-25T09:10:30.352Z,10.80
2019-02-25T09:12:58.961Z,10.80
2019-02-25T09:15:27.614Z,10.90
2019-02-25T09:18:15.554Z,11.00
2019-02-25T09:20:44.267Z,11.00
2019-02-25T09:23:12.856Z,11.10
2019-02-25T09:25:41.848Z,11.20
2019-02-25T09:28:10.523Z,11.30
2019-02-25T09:30:39.137Z,11.30
2019-02-25T09:33:08.020Z,11.40
2019-02-25T09:35:36.624Z,11.50
2019-02-25T09:38:05.228Z,11.60
2019-02-25T09:40:33.843Z,11.60
2019-02-25T09:43:02.434Z,11.70
2019-02-25T09:45:31.029Z,11.80
2019-02-25T09:47:59.750Z,11.90
2019-02-25T09:50:28.480Z,12.00
2019-02-25T09:52:57.097Z,12.10
2019-02-25T09:55:25.691Z,12.10
2019-02-25T09:57:54.307Z,12.20
2019-02-25T10:00:22.907Z,12.40
2019-02-25T10:02:51.520Z,12.50
2019-02-25T10:05:20.130Z,12.60
2019-02-25T10:07:48.724Z,12.80
2019-02-25T10:10:17.375Z,13.00
2019-02-25T10:12:45.981Z,13.10
2019-02-25T10:15:15.502Z,13.30
2019-02-25T10:17:44.110Z,13.40
2019-02-25T10:20:12.750Z,13.50
2019-02-25T10:22:41.380Z,13.60
2019-02-25T10:25:10.010Z,13.70
2019-02-25T10:27:38.606Z,13.80
2019-02-25T10:30:08.504Z,13.90
2019-02-25T10:32:37.083Z,13.90
2019-02-25T10:35:07.097Z,14.00
2019-02-25T10:37:36.314Z,14.10
2019-02-25T10:40:06.886Z,14.20
2019-02-25T10:42:36.141Z,14.30
2019-02-25T10:45:25.193Z,14.30
2019-02-25T10:47:58.324Z,14.40
2019-02-25T10:50:24.123Z,14.50
2019-02-25T10:52:52.711Z,14.60
2019-02-25T10:55:45.091Z,14.60
2019-02-25T10:58:13.412Z,14.70
2019-02-25T11:00:43.650Z,14.70
2019-02-25T11:03:13.455Z,14.80
2019-02-25T11:05:42.841Z,14.90
2019-02-25T11:08:14.004Z,14.90
2019-02-25T11:10:57.731Z,15.00
2019-02-25T11:13:27.542Z,15.20
2019-02-25T11:15:56.643Z,15.20
2019-02-25T11:18:44.580Z,15.30
2019-02-25T11:21:13.228Z,15.30
2019-02-25T11:23:43.461Z,15.40
2019-02-25T11:26:12.193Z,15.50
2019-02-25T11:28:41.254Z,15.50
2019-02-25T11:31:11.095Z,15.60
2019-02-25T11:33:40.114Z,15.70
2019-02-25T11:36:10.445Z,15.80
2019-02-25T11:38:39.054Z,15.80
2019-02-25T11:41:09.471Z,15.90
2019-02-25T11:43:37.943Z,15.90
2019-02-25T11:46:06.561Z,16.00
2019-02-25T11:48:35.153Z,16.00
2019-02-25T11:51:03.924Z,16.00
2019-02-25T11:53:32.524Z,16.00
2019-02-25T11:56:01.114Z,16.10
2019-02-25T11:58:49.025Z,16.20
2019-02-25T12:01:17.653Z,16.20
2019-02-25T12:03:46.263Z,16.30
2019-02-25T12:06:14.965Z,16.30
2019-02-25T12:08:44.157Z,16.40
2019-02-25T12:11:12.764Z,16.50
2019-02-25T12:13:41.443Z,16.60
2019-02-25T12:16:10.037Z,16.70
2019-02-25T12:18:38.645Z,16.70
2019-02-25T12:21:07.614Z,16.70
2019-02-25T12:23:36.266Z,16.70
2019-02-25T12:26:04.876Z,16.80
2019-02-25T12:28:33.459Z,17.00
2019-02-25T12:31:02.073Z,17.10
2019-02-25T12:33:30.640Z,17.10
2019-02-25T12:35:59.233Z,17.10
2019-02-25T12:38:27.849Z,17.10
2019-02-25T12:40:56.451Z,17.10
2019-02-25T12:43:25.341Z,17.20
2019-02-25T12:45:53.925Z,17.20
2019-02-25T12:48:22.821Z,17.30
2019-02-25T12:50:51.527Z,17.30
2019-02-25T12:53:20.972Z,17.40
2019-02-25T12:56:01.814Z,17.30
2019-02-25T12:58:30.402Z,17.40
2019-02-25T13:00:59.018Z,17.40
2019-02-25T13:03:27.596Z,17.40
2019-02-25T13:05:56.180Z,17.40
2019-02-25T13:08:25.160Z,17.50
2019-02-25T13:10:53.757Z,17.50
2019-02-25T13:13:22.626Z,17.60
2019-02-25T13:15:51.212Z,17.60
2019-02-25T13:18:19.814Z,17.70
2019-02-25T13:20:48.464Z,17.80
2019-02-25T13:23:19.800Z,17.80
2019-02-25T13:25:48.391Z,17.80
2019-02-25T13:28:36.324Z,17.80
2019-02-25T13:31:05.685Z,17.90
2019-02-25T13:33:35.045Z,17.90
2019-02-25T13:36:22.981Z,18.00
2019-02-25T13:39:04.801Z,18.00
2019-02-25T13:41:33.472Z,18.00
2019-02-25T13:44:02.529Z,17.90
2019-02-25T13:46:31.143Z,18.00
2019-02-25T13:49:19.267Z,18.10
2019-02-25T13:51:47.977Z,18.10
2019-02-25T13:54:16.744Z,18.10
2019-02-25T13:56:45.464Z,18.10
2019-02-25T13:59:15.863Z,18.10
2019-02-25T14:02:06.345Z,18.20
2019-02-25T14:04:35.027Z,18.20
2019-02-25T14:07:03.643Z,18.20
2019-02-25T14:09:32.244Z,18.30
2019-02-25T14:12:02.716Z,18.20
2019-02-25T14:14:31.273Z,18.20
2019-02-25T14:16:59.977Z,18.20
2019-02-25T14:19:28.634Z,18.20
2019-02-25T14:21:57.336Z,18.30
2019-02-25T14:24:25.940Z,18.30
2019-02-25T14:26:54.699Z,18.20
2019-02-25T14:29:26.240Z,18.20
2019-02-25T14:31:53.772Z,18.20
2019-02-25T14:34:22.456Z,18.10
2019-02-25T14:37:10.728Z,18.10
2019-02-25T14:39:40.747Z,18.10
2019-02-25T14:42:11.929Z,18.10
2019-02-25T14:44:41.277Z,18.20
2019-02-25T14:47:19.522Z,18.20
2019-02-25T14:49:42.784Z,18.20
2019-02-25T14:52:11.081Z,18.10
2019-02-25T14:54:39.764Z,18.10
2019-02-25T14:57:08.351Z,18.00
2019-02-25T14:59:37.026Z,18.00
2019-02-25T15:02:18.349Z,18.10
2019-02-25T15:04:47.043Z,18.00
2019-02-25T15:07:18.683Z,18.00
2019-02-25T15:09:50.724Z,18.00
2019-02-25T15:12:20.730Z,18.00
2019-02-25T15:14:49.688Z,17.90
2019-02-25T15:17:18.346Z,17.90
2019-02-25T15:19:51.471Z,17.90
2019-02-25T15:22:20.158Z,17.90
2019-02-25T15:24:50.449Z,18.00
2019-02-25T15:27:19.117Z,18.00
2019-02-25T15:29:48.966Z,18.00
2019-02-25T15:32:39.175Z,18.00
2019-02-25T15:35:08.711Z,17.90
2019-02-25T15:37:37.389Z,17.90
2019-02-25T15:40:09.715Z,17.90
2019-02-25T15:42:38.920Z,17.80
2019-02-25T15:45:09.192Z,17.80
2019-02-25T15:47:38.153Z,17.90
2019-02-25T15:50:08.067Z,17.90
2019-02-25T15:52:39.954Z,17.80
2019-02-25T15:55:13.020Z,17.80
2019-02-25T15:57:40.183Z,17.70
2019-02-25T16:00:12.874Z,17.60
2019-02-25T16:02:41.556Z,17.50
2019-02-25T16:05:10.516Z,17.40
2019-02-25T16:07:40.205Z,17.40
2019-02-25T16:10:11.885Z,17.30
2019-02-25T16:12:40.445Z,17.20
2019-02-25T16:15:14.968Z,17.10
2019-02-25T16:17:43.944Z,17.10
2019-02-25T16:20:12.549Z,17.00
2019-02-25T16:22:41.156Z,16.90
2019-02-25T16:25:13.372Z,17.00
2019-02-25T16:27:43.270Z,16.90
2019-02-25T16:30:13.075Z,16.90
2019-02-25T16:32:43.764Z,16.80
2019-02-25T16:35:12.253Z,16.80
2019-02-25T16:37:42.649Z,16.70
2019-02-25T16:40:11.805Z,16.60
2019-02-25T16:43:02.191Z,16.60
2019-02-25T16:45:34.756Z,16.60
2019-02-25T16:48:00.819Z,16.50
2019-02-25T16:50:29.800Z,16.40
2019-02-25T16:52:58.468Z,16.40
2019-02-25T16:55:27.830Z,16.30
2019-02-25T16:57:56.680Z,16.30
2019-02-25T17:00:29.414Z,16.20
2019-02-25T17:02:59.195Z,16.20
2019-02-25T17:05:26.371Z,16.20
2019-02-25T17:07:56.135Z,16.10
2019-02-25T17:10:27.099Z,16.10
2019-02-25T17:12:55.519Z,16.00
2019-02-25T17:15:26.353Z,15.90
2019-02-25T17:17:58.272Z,15.80
2019-02-25T17:20:45.047Z,15.80
2019-02-25T17:23:13.984Z,15.70
2019-02-25T17:25:43.597Z,15.60
2019-02-25T17:28:15.344Z,15.60
2019-02-25T17:30:44.595Z,15.50
2019-02-25T17:33:14.640Z,15.50
2019-02-25T17:35:45.070Z,15.40
2019-02-25T17:38:33.200Z,15.30
2019-02-25T17:41:03.656Z,15.10
2019-02-25T17:43:34.254Z,15.00
2019-02-25T17:46:05.107Z,14.90
2019-02-25T17:48:33.742Z,14.80
2019-02-25T17:51:04.677Z,14.70
2019-02-25T17:53:33.285Z,14.70
2019-02-25T17:56:02.025Z,14.60
2019-02-25T17:58:30.693Z,14.50
2019-02-25T18:01:01.074Z,14.50
2019-02-25T18:03:49.865Z,14.50
2019-02-25T18:06:20.122Z,14.40
2019-02-25T18:08:48.853Z,14.40
2019-02-25T18:11:18.406Z,14.30
2019-02-25T18:13:49.022Z,14.20
2019-02-25T18:16:18.996Z,14.10
2019-02-25T18:18:50.635Z,14.00
2019-02-25T18:21:18.129Z,13.90
2019-02-25T18:23:47.130Z,13.90
2019-02-25T18:26:16.625Z,13.80
2019-02-25T18:28:45.893Z,13.70
2019-02-25T18:31:15.376Z,13.70
2019-02-25T18:34:04.776Z,13.60
2019-02-25T18:36:33.644Z,13.50
2019-02-25T18:39:02.308Z,13.50
2019-02-25T18:41:33.819Z,13.40
2019-02-25T18:44:01.308Z,13.30
2019-02-25T18:46:29.987Z,13.30
2019-02-25T18:48:58.848Z,13.20
2019-02-25T18:51:28.366Z,13.20
2019-02-25T18:54:09.810Z,13.10
2019-02-25T18:56:40.243Z,13.00
2019-02-25T18:59:13.718Z,13.00
2019-02-25T19:01:39.333Z,13.00
2019-02-25T19:04:27.609Z,12.90
2019-02-25T19:06:56.203Z,12.90
2019-02-25T19:09:25.642Z,12.80
2019-02-25T19:11:56.184Z,12.80
2019-02-25T19:14:26.554Z,12.80
2019-02-25T19:16:57.742Z,12.80
2019-02-25T19:19:26.697Z,12.70
2019-02-25T19:21:56.267Z,12.70
2019-02-25T19:24:24.993Z,12.70
2019-02-25T19:26:53.659Z,12.60
2019-02-25T19:29:23.794Z,12.60
2019-02-25T19:31:53.241Z,12.60
2019-02-25T19:34:21.893Z,12.50
2019-02-25T19:36:50.579Z,12.40
2019-02-25T19:39:21.432Z,12.40
2019-02-25T19:41:51.009Z,12.30
2019-02-25T19:44:21.192Z,12.30
2019-02-25T19:46:51.246Z,12.20
2019-02-25T19:49:20.731Z,12.20
2019-02-25T19:51:50.723Z,12.10
2019-02-25T19:54:19.843Z,12.10
2019-02-25T19:56:50.701Z,12.00
2019-02-25T19:59:19.930Z,11.90
2019-02-25T20:01:49.409Z,11.90
2019-02-25T20:04:18.815Z,11.80
2019-02-25T20:06:48.969Z,11.70
2019-02-25T20:09:18.068Z,11.70
2019-02-25T20:11:46.651Z,11.60
2019-02-25T20:14:17.294Z,11.60
2019-02-25T20:16:46.706Z,11.50
2019-02-25T20:21:57.699Z,11.30
2019-02-25T20:24:26.294Z,11.30
2019-02-25T20:26:57.740Z,11.30
2019-02-25T20:29:25.204Z,11.30
2019-02-25T20:31:54.564Z,11.20
2019-02-25T20:34:25.923Z,11.10
2019-02-25T20:36:55.407Z,11.10
2019-02-25T20:39:24.844Z,11.10
2019-02-25T20:41:54.357Z,11.00
2019-02-25T20:44:24.167Z,11.00
2019-02-25T20:46:55.074Z,11.00
2019-02-25T20:49:26.389Z,11.00
2019-02-25T20:51:56.526Z,11.00
2019-02-25T20:54:25.077Z,10.80
2019-02-25T20:56:55.377Z,10.80
2019-02-25T20:59:25.771Z,10.80
2019-02-25T21:01:54.487Z,10.70
2019-02-25T21:04:23.075Z,10.70
2019-02-25T21:06:51.726Z,10.60
2019-02-25T21:09:20.697Z,10.50
2019-02-25T21:11:49.293Z,10.50
2019-02-25T21:14:18.324Z,10.50
2019-02-25T21:16:46.913Z,10.40
2019-02-25T21:19:17.586Z,10.30
2019-02-25T21:21:45.879Z,10.30
2019-02-25T21:24:14.593Z,10.20
2019-02-25T21:26:43.218Z,10.20
2019-02-25T21:29:31.779Z,10.10
2019-02-25T21:32:01.509Z,10.10
2019-02-25T21:34:31.206Z,10.10
2019-02-25T21:37:01.282Z,10.10
2019-02-25T21:39:31.988Z,10.00
2019-02-25T21:42:01.081Z,10.00
2019-02-25T21:44:31.541Z,10.00
2019-02-25T21:47:01.096Z,9.90
2019-02-25T21:49:33.790Z,9.90
2019-02-25T21:52:02.488Z,9.80
2019-02-25T21:54:50.385Z,9.70
2019-02-25T21:57:18.975Z,9.70
2019-02-25T21:59:47.557Z,9.60
2019-02-25T22:02:17.434Z,9.60
2019-02-25T22:04:48.137Z,9.50
2019-02-25T22:07:24.152Z,9.60
2019-02-25T22:09:49.442Z,9.50
2019-02-25T22:12:18.044Z,9.50
2019-02-25T22:14:47.782Z,9.40
2019-02-25T22:17:20.762Z,9.40
2019-02-25T22:19:50.235Z,9.30
2019-02-25T22:22:19.362Z,9.30
2019-02-25T22:24:49.251Z,9.30
2019-02-25T22:27:18.479Z,9.30
2019-02-25T22:29:48.149Z,9.20
2019-02-25T22:32:16.811Z,9.20
2019-02-25T22:34:45.384Z,9.10
2019-02-25T22:37:33.272Z,9.10
2019-02-25T22:40:01.880Z,9.00
2019-02-25T22:42:31.692Z,9.00
2019-02-25T22:45:00.873Z,9.00
2019-02-25T22:47:29.424Z,8.90
2019-02-25T22:49:58.033Z,8.90
2019-02-25T22:52:28.796Z,8.90
2019-02-25T22:54:56.941Z,8.80
2019-02-25T22:57:27.280Z,8.80
2019-02-25T22:59:55.841Z,8.80
2019-02-25T23:02:27.319Z,8.80
2019-02-25T23:04:56.262Z,8.70
2019-02-25T23:07:25.071Z,8.70
2019-02-25T23:09:54.383Z,8.50
2019-02-25T23:12:24.351Z,8.40
2019-02-25T23:14:54.388Z,8.40
2019-02-25T23:17:24.466Z,8.30
2019-02-25T23:20:12.382Z,8.30
2019-02-25T23:22:55.155Z,8.30
2019-02-25T23:25:23.613Z,8.20
2019-02-25T23:27:53.494Z,8.20
2019-02-25T23:30:23.414Z,8.20
2019-02-25T23:32:54.541Z,8.20
2019-02-25T23:35:23.511Z,8.20
2019-02-25T23:37:54.487Z,8.10
2019-02-25T23:40:23.552Z,8.20
2019-02-25T23:42:52.285Z,8.10
2019-02-25T23:45:23.182Z,8.10
2019-02-25T23:47:55.285Z,8.10
2019-02-25T23:50:21.836Z,8.10
2019-02-25T23:52:50.447Z,8.00
2019-02-25T23:55:21.462Z,8.00
2019-02-25T23:57:49.316Z,8.00
